Terminal Aerodrome Forecast
Issued by NWS

Home | Current Version | Previous Version | Text Only | Print | Product List | Glossary On
Versions: 1 2 3 4 5 6 7 8 9 10 11 12 13 14 15 16 17 18 19 20
000
FTUS41 KPHI 281145
TAFMIV
TAF
KMIV 281145Z 2812/2912 00000KT 4SM BR SCT002 SCT100
     FM281230 VRB03KT P6SM SCT250
     FM281700 20004KT P6SM SCT050
      TEMPO 2819/2822 4SM SHRA BKN035
     FM282200 VRB03KT P6SM BKN050
      TEMPO 2902/2904 -SHRA OVC035
     FM290400 VRB03KT 4SM -SHRA BR OVC035
     FM290700 12006KT 3SM SHRA BR OVC025=

USA.gov is the U.S. government's official web portal to all federal, state and local government web resources and services.